Miquon, Pennsylvania
Current Conditions -  °F | °C
As of 8:55 AM on Wednesday 26 Nov 2014 (Local Time) from KLOM Reporting Station
Overcast Overcast  
Wind Chill: 34°   Ceiling: 1100
Heat Index: 37°   Visibility: 4mi
Dew Point: 36°   Wind: 5mph
Humidity: 93%   Direction: 40°NE
Pressure: 30.09"   Gusts: NA
Location:  40.06°N, 75.27°W
Report Text: KLOM 261355Z AUTO 04004KT 4SM BKN011 OVC014 03/02 A3009 RMK AO1 P0008
Loading
Personal Weather Stations






























Interactive Weather Map New forecast layout! Learn more

10-Day Weather Forecast

Advertisements
Track Severe Weather on mobile